Time;durP1;ratioP1;P1;durP2;ratioP2;P2;SDS_P1;SDS_P2;PMS_P1;PMS_P2;Temp;Humidity;BMP_temperature;BMP_pressure;BME280_temperature;BME280_humidity;BME280_pressure;Samples;Min_cycle;Max_cycle;Signal;HPM_P1;HPM_P2
2023/11/26 00:02:14;;;;;;;49.03;30.00;;;19.60;55.90;;;;;;5010856;28;20172;-65
2023/11/26 00:04:40;;;;;;;48.80;28.00;;;19.60;55.90;;;;;;5010574;28;20177;-65
2023/11/26 00:07:05;;;;;;;48.70;30.70;;;19.60;55.90;;;;;;5010722;28;20786;-65
2023/11/26 00:09:34;;;;;;;45.57;28.47;;;19.60;55.90;;;;;;5010409;28;20223;-65
2023/11/26 00:11:59;;;;;;;50.77;28.83;;;19.60;55.90;;;;;;5010529;28;20176;-65
2023/11/26 00:14:25;;;;;;;50.93;28.57;;;19.60;55.90;;;;;;5010468;28;20441;-62
2023/11/26 00:16:51;;;;;;;51.03;30.20;;;19.50;55.80;;;;;;5010330;28;20203;-65
2023/11/26 00:19:17;;;;;;;47.80;29.77;;;19.50;55.80;;;;;;5010325;28;20651;-66
2023/11/26 00:21:43;;;;;;;46.20;30.57;;;19.60;55.90;;;;;;5010341;28;20598;-65
2023/11/26 00:24:08;;;;;;;49.03;28.93;;;19.50;55.80;;;;;;5010669;28;20498;-65
2023/11/26 00:26:34;;;;;;;49.63;28.50;;;19.50;55.80;;;;;;5010339;28;20981;-65
2023/11/26 00:29:00;;;;;;;46.80;28.13;;;19.60;55.90;;;;;;5010135;28;20682;-65
2023/11/26 00:31:25;;;;;;;48.00;28.40;;;19.60;55.90;;;;;;5010304;28;20267;-65
2023/11/26 00:33:51;;;;;;;47.23;28.20;;;19.50;55.80;;;;;;5010218;28;20555;-65
2023/11/26 00:36:21;;;;;;;48.17;28.00;;;19.60;55.90;;;;;;5010160;28;20171;-66
2023/11/26 00:38:46;;;;;;;45.60;29.50;;;19.50;55.80;;;;;;5010116;28;20200;-65
2023/11/26 00:41:16;;;;;;;40.63;25.63;;;19.50;55.80;;;;;;5010236;28;20821;-67
2023/11/26 00:43:43;;;;;;;46.60;27.83;;;19.50;55.80;;;;;;5010395;28;20168;-67
2023/11/26 00:46:09;;;;;;;43.10;30.23;;;19.50;55.80;;;;;;5010070;28;20514;-67
2023/11/26 00:48:35;;;;;;;47.20;28.70;;;19.50;55.80;;;;;;5009871;28;20802;-67
2023/11/26 00:51:00;;;;;;;45.97;29.43;;;19.50;55.80;;;;;;5010123;28;20510;-67
2023/11/26 00:53:26;;;;;;;44.17;28.03;;;19.50;55.80;;;;;;5010087;28;20176;-66
2023/11/26 00:55:51;;;;;;;42.50;28.13;;;19.50;55.80;;;;;;5010094;28;20172;-65
2023/11/26 00:58:17;;;;;;;44.33;28.23;;;19.50;55.80;;;;;;5011620;28;20215;-66
2023/11/26 01:00:43;;;;;;;40.87;27.33;;;19.50;55.80;;;;;;5013933;28;20172;-66
2023/11/26 01:03:10;;;;;;;41.60;26.03;;;19.50;55.80;;;;;;5013892;28;20647;-66
2023/11/26 01:05:35;;;;;;;42.07;25.27;;;19.50;55.90;;;;;;5013837;28;20546;-66
2023/11/26 01:08:01;;;;;;;40.20;25.37;;;19.50;55.80;;;;;;5013620;28;20431;-65
2023/11/26 01:10:27;;;;;;;44.13;26.50;;;19.50;55.90;;;;;;5013725;28;20207;-65
2023/11/26 01:12:52;;;;;;;45.63;28.47;;;19.50;55.80;;;;;;5013615;28;20172;-66
2023/11/26 01:15:18;;;;;;;39.53;25.07;;;19.50;55.80;;;;;;5013652;28;20560;-66
2023/11/26 01:17:44;;;;;;;38.67;25.80;;;19.50;55.80;;;;;;4995802;28;20191;-67
2023/11/26 01:20:10;;;;;;;41.40;25.40;;;19.50;55.80;;;;;;5013621;28;20416;-66
2023/11/26 01:22:36;;;;;;;38.53;25.70;;;19.50;55.80;;;;;;5013539;28;20275;-66
2023/11/26 01:25:03;;;;;;;40.83;26.20;;;19.50;55.80;;;;;;5013344;28;20412;-67
2023/11/26 01:27:28;;;;;;;38.30;26.00;;;19.50;55.80;;;;;;5013298;28;20427;-66
2023/11/26 01:29:54;;;;;;;42.90;26.27;;;19.50;55.80;;;;;;5013226;28;20458;-67
2023/11/26 01:32:20;;;;;;;39.03;26.03;;;19.50;55.90;;;;;;5013242;28;20639;-66
2023/11/26 01:34:46;;;;;;;39.73;25.13;;;19.50;56.40;;;;;;5013331;28;20411;-66
2023/11/26 01:37:11;;;;;;;40.77;24.63;;;19.50;55.80;;;;;;5013410;28;20235;-66
2023/11/26 01:39:39;;;;;;;41.60;25.83;;;19.50;55.80;;;;;;5013204;28;20242;-66
2023/11/26 01:42:05;;;;;;;37.23;24.67;;;19.50;55.80;;;;;;5013172;28;20177;-66
2023/11/26 01:44:34;;;;;;;38.87;24.60;;;19.50;55.90;;;;;;5013366;28;20539;-67
2023/11/26 01:47:04;;;;;;;37.27;24.10;;;19.50;55.80;;;;;;5013171;28;20567;-66
2023/11/26 01:49:34;;;;;;;36.00;24.80;;;19.50;55.90;;;;;;5012971;28;20450;-66
2023/11/26 01:52:01;;;;;;;38.80;24.17;;;19.50;55.80;;;;;;5012915;28;20403;-67
2023/11/26 01:54:31;;;;;;;36.57;23.53;;;19.50;55.80;;;;;;5012892;28;20403;-67
2023/11/26 01:56:59;;;;;;;37.17;23.70;;;19.50;55.80;;;;;;5012769;28;20930;-66
2023/11/26 01:59:25;;;;;;;37.70;24.20;;;19.50;55.90;;;;;;5012840;28;20431;-66
2023/11/26 02:01:51;;;;;;;35.83;24.30;;;19.50;55.90;;;;;;5012715;28;20423;-67
2023/11/26 02:04:17;;;;;;;39.03;25.93;;;19.50;55.90;;;;;;4995029;28;20956;-66
2023/11/26 02:06:42;;;;;;;38.30;24.83;;;19.50;55.90;;;;;;5012634;28;20777;-67
2023/11/26 02:09:10;;;;;;;39.17;24.47;;;19.50;55.90;;;;;;4994251;28;20204;-67
2023/11/26 02:11:37;;;;;;;40.10;25.87;;;19.50;55.80;;;;;;5012655;28;20168;-67
2023/11/26 02:14:03;;;;;;;37.90;23.37;;;19.50;55.90;;;;;;5012508;28;20414;-66
2023/11/26 02:16:28;;;;;;;36.00;23.53;;;19.50;55.90;;;;;;5012366;28;20415;-66
2023/11/26 02:18:54;;;;;;;39.83;24.60;;;19.50;55.90;;;;;;5012298;28;20431;-66
2023/11/26 02:21:19;;;;;;;35.00;23.70;;;19.50;56.40;;;;;;5012645;28;20226;-66
2023/11/26 02:23:46;;;;;;;34.47;22.33;;;19.50;55.90;;;;;;5012354;28;20177;-67
2023/11/26 02:26:11;;;;;;;36.27;22.30;;;19.50;55.80;;;;;;5012330;28;20165;-67
2023/11/26 02:28:40;;;;;;;30.97;22.03;;;19.50;55.80;;;;;;5012165;28;20459;-66
2023/11/26 02:31:06;;;;;;;38.53;22.87;;;19.50;55.90;;;;;;5012511;28;20183;-66
2023/11/26 02:33:36;;;;;;;35.47;22.47;;;19.50;56.40;;;;;;5012348;28;20905;-66
2023/11/26 02:36:02;;;;;;;27.80;20.33;;;19.50;55.90;;;;;;5012521;28;20168;-66
2023/11/26 02:38:28;;;;;;;33.63;22.07;;;19.50;55.90;;;;;;5012308;28;20431;-65
2023/11/26 02:40:54;;;;;;;30.07;21.40;;;19.50;55.90;;;;;;5012760;28;20419;-66
2023/11/26 02:43:19;;;;;;;31.80;23.00;;;19.50;55.90;;;;;;5012049;28;20203;-67
2023/11/26 02:45:46;;;;;;;30.70;20.50;;;19.50;55.90;;;;;;5011984;28;20192;-66
2023/11/26 02:48:12;;;;;;;33.53;21.97;;;19.50;55.90;;;;;;5011882;28;20570;-65
2023/11/26 02:50:37;;;;;;;33.90;22.87;;;19.50;55.90;;;;;;5011958;28;20403;-67
2023/11/26 02:53:03;;;;;;;32.20;22.30;;;19.50;55.90;;;;;;5011847;28;20172;-66
2023/11/26 02:55:29;;;;;;;32.17;22.33;;;19.50;55.90;;;;;;5012006;28;20210;-66
2023/11/26 02:57:54;;;;;;;31.63;21.73;;;19.40;56.30;;;;;;4993996;28;20377;-67
2023/11/26 03:00:20;;;;;;;34.07;21.13;;;19.50;55.90;;;;;;5011667;28;20179;-67
2023/11/26 03:02:46;;;;;;;31.23;21.73;;;19.50;55.90;;;;;;5011647;28;20187;-67
2023/11/26 03:05:19;;;;;;;30.60;21.37;;;19.50;55.90;;;;;;5011891;28;20180;-66
2023/11/26 03:07:46;;;;;;;31.63;19.93;;;19.50;55.90;;;;;;5011603;28;20423;-67
2023/11/26 03:13:12;;;;;;;30.73;20.60;;;19.50;55.90;;;;;;5011597;28;20439;-66
2023/11/26 03:15:39;;;;;;;27.77;20.67;;;19.40;55.80;;;;;;5011725;28;20909;-66
2023/11/26 03:18:08;;;;;;;29.17;19.47;;;19.40;55.80;;;;;;5011365;28;20419;-66
2023/11/26 03:20:37;;;;;;;30.17;21.20;;;19.40;55.80;;;;;;5011140;28;20422;-66
2023/11/26 03:23:04;;;;;;;33.40;21.50;;;19.40;55.80;;;;;;4993034;28;20415;-67
2023/11/26 03:25:30;;;;;;;29.67;19.47;;;19.40;55.90;;;;;;5011529;28;20446;-66
2023/11/26 03:27:58;;;;;;;31.93;20.80;;;19.40;55.80;;;;;;5011283;28;20438;-66
2023/11/26 03:30:25;;;;;;;32.20;22.40;;;19.40;55.80;;;;;;5011219;28;20451;-66
2023/11/26 03:32:52;;;;;;;32.13;20.50;;;19.40;56.20;;;;;;4993775;28;20421;-66
2023/11/26 03:35:18;;;;;;;29.17;21.20;;;19.40;55.90;;;;;;5011144;28;21049;-66
2023/11/26 03:37:43;;;;;;;28.90;19.60;;;19.40;55.90;;;;;;5011288;28;20522;-67
2023/11/26 03:40:10;;;;;;;30.80;20.40;;;19.40;55.80;;;;;;5011052;28;20651;-66
2023/11/26 03:42:36;;;;;;;33.70;21.50;;;19.40;55.80;;;;;;5011016;28;20226;-66
2023/11/26 03:45:03;;;;;;;32.37;20.73;;;19.40;55.90;;;;;;5011007;28;20439;-67
2023/11/26 03:47:29;;;;;;;31.20;19.67;;;19.40;55.80;;;;;;5010834;28;20424;-67
2023/11/26 03:49:54;;;;;;;29.87;20.27;;;19.40;55.80;;;;;;4993081;28;20462;-66
2023/11/26 03:52:20;;;;;;;26.73;18.17;;;19.40;55.80;;;;;;5010835;28;20700;-67
2023/11/26 03:54:47;;;;;;;32.20;19.97;;;19.40;55.80;;;;;;5010822;28;20172;-67
2023/11/26 03:57:12;;;;;;;28.77;19.53;;;19.40;55.80;;;;;;5011033;28;20417;-66
2023/11/26 03:59:42;;;;;;;29.30;19.83;;;19.40;55.90;;;;;;5010661;28;20522;-67
2023/11/26 04:02:08;;;;;;;26.20;18.43;;;19.40;55.80;;;;;;5010639;28;20713;-67
2023/11/26 04:04:34;;;;;;;26.07;17.30;;;19.40;55.80;;;;;;5010635;28;20419;-67
2023/11/26 04:07:00;;;;;;;26.87;18.40;;;19.40;55.80;;;;;;5010561;28;20315;-67
2023/11/26 04:09:26;;;;;;;26.50;18.70;;;19.40;55.90;;;;;;4992912;28;20562;-67
2023/11/26 04:11:56;;;;;;;26.60;19.33;;;19.40;55.80;;;;;;5010624;28;20407;-66
2023/11/26 04:14:30;;;;;;;26.53;18.50;;;19.40;55.90;;;;;;5010564;28;20411;-66
2023/11/26 04:16:56;;;;;;;29.73;19.60;;;19.40;55.80;;;;;;5010542;28;20414;-67
2023/11/26 04:19:22;;;;;;;29.50;18.10;;;19.40;55.90;;;;;;5010433;28;20421;-66
2023/11/26 04:21:47;;;;;;;25.53;17.40;;;19.40;55.90;;;;;;5010748;28;20204;-66
2023/11/26 04:24:13;;;;;;;26.27;17.90;;;19.40;55.80;;;;;;5010499;28;20180;-66
2023/11/26 04:26:39;;;;;;;26.07;17.30;;;19.40;55.90;;;;;;5010365;28;20177;-66
2023/11/26 04:29:05;;;;;;;26.07;18.07;;;19.40;55.90;;;;;;5010281;28;20807;-67
2023/11/26 04:31:31;;;;;;;24.07;16.23;;;19.40;55.80;;;;;;5010461;28;20403;-66
2023/11/26 04:33:57;;;;;;;25.57;16.80;;;19.40;55.80;;;;;;5015624;28;20418;-67
2023/11/26 04:36:23;;;;;;;24.27;18.77;;;19.40;55.80;;;;;;5016825;28;20172;-66
2023/11/26 04:38:48;;;;;;;23.20;16.60;;;19.40;55.90;;;;;;5016871;28;20196;-66
2023/11/26 04:41:15;;;;;;;24.27;17.13;;;19.40;55.80;;;;;;5017038;28;20229;-66
2023/11/26 04:43:41;;;;;;;24.67;17.20;;;19.40;55.90;;;;;;5016751;28;20824;-67
2023/11/26 04:46:07;;;;;;;25.73;17.83;;;19.40;55.90;;;;;;5016809;28;20223;-67
2023/11/26 04:48:33;;;;;;;25.23;16.83;;;19.40;55.90;;;;;;5016623;28;20200;-67
2023/11/26 04:51:00;;;;;;;30.17;18.17;;;19.40;55.90;;;;;;5016646;28;20894;-66
2023/11/26 04:53:26;;;;;;;24.60;17.60;;;19.40;55.90;;;;;;5016709;28;20407;-66
2023/11/26 04:55:52;;;;;;;21.67;15.73;;;19.40;55.90;;;;;;5016675;28;20411;-66
2023/11/26 04:58:18;;;;;;;21.70;16.37;;;19.40;55.90;;;;;;5016536;28;20298;-66
2023/11/26 05:00:45;;;;;;;25.20;17.43;;;19.40;55.90;;;;;;5016587;28;20490;-66
2023/11/26 05:03:10;;;;;;;23.13;16.57;;;19.40;55.90;;;;;;5016619;28;20227;-66
2023/11/26 05:05:37;;;;;;;23.23;15.80;;;19.40;55.90;;;;;;5016543;28;20820;-66
2023/11/26 05:08:04;;;;;;;24.53;16.97;;;19.40;55.90;;;;;;5016458;28;20196;-67
2023/11/26 05:10:31;;;;;;;23.03;16.57;;;19.40;55.90;;;;;;5016429;28;20980;-66
2023/11/26 05:12:56;;;;;;;22.23;15.40;;;19.40;55.90;;;;;;5016476;28;20433;-67
2023/11/26 05:15:22;;;;;;;24.20;16.97;;;19.40;55.90;;;;;;5016477;28;20399;-66
2023/11/26 05:17:49;;;;;;;24.63;16.90;;;19.40;55.90;;;;;;5016394;28;20188;-66
2023/11/26 05:20:15;;;;;;;23.83;17.20;;;19.40;55.90;;;;;;5016385;28;20263;-67
2023/11/26 05:22:41;;;;;;;24.67;15.83;;;19.30;55.80;;;;;;5016467;28;20414;-67
2023/11/26 05:25:07;;;;;;;26.57;18.10;;;19.30;56.30;;;;;;5016569;28;20419;-66
2023/11/26 05:27:33;;;;;;;23.07;16.23;;;19.40;55.90;;;;;;5016289;28;20230;-67
2023/11/26 05:30:00;;;;;;;21.57;15.30;;;19.30;55.80;;;;;;5016318;28;20898;-66
2023/11/26 05:32:26;;;;;;;23.00;17.20;;;19.40;55.90;;;;;;5016296;28;20176;-66
2023/11/26 05:34:51;;;;;;;21.63;16.50;;;19.40;55.90;;;;;;5016522;28;20419;-66
2023/11/26 05:37:17;;;;;;;22.60;16.03;;;19.30;55.80;;;;;;5016184;28;20222;-66
2023/11/26 05:39:42;;;;;;;21.77;15.20;;;19.30;55.80;;;;;;5016290;28;20688;-66
2023/11/26 05:42:08;;;;;;;22.87;15.60;;;19.30;55.90;;;;;;4982305;28;20205;-66
2023/11/26 05:44:33;;;;;;;19.00;14.53;;;19.30;55.80;;;;;;4996026;28;20176;-67
2023/11/26 05:46:59;;;;;;;22.60;14.80;;;19.30;55.80;;;;;;5013031;28;20198;-67
2023/11/26 05:49:26;;;;;;;21.97;15.93;;;19.30;55.80;;;;;;5012984;28;20654;-67
2023/11/26 05:51:55;;;;;;;20.00;15.07;;;19.30;55.80;;;;;;5012948;28;20171;-66
2023/11/26 05:54:21;;;;;;;20.50;14.60;;;19.30;55.80;;;;;;5012909;28;20411;-66
2023/11/26 05:56:47;;;;;;;20.83;15.20;;;19.30;55.80;;;;;;5013141;28;20423;-66
2023/11/26 05:59:12;;;;;;;21.37;15.53;;;19.30;56.40;;;;;;5012716;28;20203;-67
2023/11/26 06:01:39;;;;;;;22.43;14.77;;;19.30;55.80;;;;;;5012788;28;20187;-66
2023/11/26 06:04:06;;;;;;;20.67;15.03;;;19.30;55.80;;;;;;5012763;28;20177;-67
2023/11/26 06:06:31;;;;;;;23.50;15.83;;;19.30;55.80;;;;;;5012787;28;20424;-67
2023/11/26 06:08:57;;;;;;;20.90;14.63;;;19.30;55.90;;;;;;5012626;28;20605;-67
2023/11/26 06:11:22;;;;;;;20.00;14.60;;;19.30;55.90;;;;;;5012614;28;20180;-67
2023/11/26 06:13:48;;;;;;;19.97;14.00;;;19.30;55.80;;;;;;5012989;28;20273;-66
2023/11/26 06:16:14;;;;;;;22.43;16.07;;;19.30;55.80;;;;;;5012548;28;20223;-66
2023/11/26 06:18:39;;;;;;;16.40;12.73;;;19.30;56.20;;;;;;4994813;28;20257;-66
2023/11/26 06:21:05;;;;;;;19.83;14.20;;;19.30;55.80;;;;;;5012429;28;20176;-67
2023/11/26 06:23:31;;;;;;;21.60;14.40;;;19.30;55.80;;;;;;5012408;28;20192;-67
2023/11/26 06:25:56;;;;;;;18.00;13.00;;;19.30;55.80;;;;;;5012355;28;20172;-66
2023/11/26 06:28:22;;;;;;;18.93;14.00;;;19.30;55.80;;;;;;5012270;28;20200;-67
2023/11/26 06:30:47;;;;;;;17.60;13.40;;;19.30;55.80;;;;;;5012482;28;20196;-67
2023/11/26 06:33:13;;;;;;;18.20;13.67;;;19.30;55.80;;;;;;5012214;28;20177;-66
2023/11/26 06:35:38;;;;;;;19.53;14.60;;;19.30;55.90;;;;;;5012106;28;20651;-67
2023/11/26 06:38:05;;;;;;;21.33;15.37;;;19.30;55.80;;;;;;5012096;28;20188;-67
2023/11/26 06:40:31;;;;;;;18.30;13.07;;;19.30;55.80;;;;;;5012146;28;20196;-66
2023/11/26 06:42:56;;;;;;;20.47;14.67;;;19.30;55.80;;;;;;5012045;28;20449;-67
2023/11/26 06:45:22;;;;;;;20.87;13.47;;;19.30;55.80;;;;;;5011978;28;20172;-66
2023/11/26 06:47:47;;;;;;;20.20;14.43;;;19.30;55.80;;;;;;5011791;28;20295;-67
2023/11/26 06:50:13;;;;;;;19.50;14.20;;;19.30;56.40;;;;;;4994191;28;20210;-67
2023/11/26 06:52:38;;;;;;;18.57;13.37;;;19.30;55.80;;;;;;5012007;28;20195;-66
2023/11/26 06:55:05;;;;;;;22.87;14.83;;;19.30;55.80;;;;;;5012102;28;20184;-67
2023/11/26 06:57:32;;;;;;;20.67;14.80;;;19.30;55.80;;;;;;5011504;28;20510;-67
2023/11/26 06:59:58;;;;;;;21.13;14.10;;;19.30;55.80;;;;;;5011766;28;20396;-66
2023/11/26 07:02:25;;;;;;;19.50;12.50;;;19.30;55.80;;;;;;5011595;28;20403;-66
2023/11/26 07:04:51;;;;;;;20.30;13.93;;;19.30;55.80;;;;;;5011559;28;20510;-67
2023/11/26 07:07:20;;;;;;;17.90;12.67;;;19.30;55.80;;;;;;5011430;28;20427;-66
2023/11/26 07:09:47;;;;;;;21.47;13.77;;;19.30;55.80;;;;;;5011401;28;20196;-66
2023/11/26 07:12:12;;;;;;;18.03;13.10;;;19.30;55.80;;;;;;5011518;28;20439;-66
2023/11/26 07:14:38;;;;;;;17.43;13.03;;;19.40;55.90;;;;;;5011444;28;20462;-66
2023/11/26 07:17:05;;;;;;;16.90;12.27;;;19.40;55.90;;;;;;5011315;28;20654;-66
2023/11/26 07:19:30;;;;;;;16.00;11.83;;;19.40;55.90;;;;;;5011361;28;20488;-66
2023/11/26 07:21:56;;;;;;;17.80;11.93;;;19.40;55.90;;;;;;5011331;28;20415;-65
2023/11/26 07:24:22;;;;;;;17.43;12.13;;;19.50;55.90;;;;;;5011230;28;20180;-67
2023/11/26 07:26:48;;;;;;;18.63;13.67;;;19.50;55.90;;;;;;4993623;28;20459;-67
2023/11/26 07:29:14;;;;;;;17.63;13.10;;;19.50;56.40;;;;;;5011220;28;20494;-67
2023/11/26 07:31:40;;;;;;;15.87;12.47;;;19.50;55.90;;;;;;5010966;28;20663;-66
2023/11/26 07:34:05;;;;;;;17.30;12.77;;;19.50;55.80;;;;;;5011082;28;20168;-67
2023/11/26 07:36:32;;;;;;;17.97;11.77;;;19.50;55.80;;;;;;5011044;28;20176;-66
2023/11/26 07:38:58;;;;;;;16.47;12.10;;;19.60;55.90;;;;;;5010969;28;20200;-66
2023/11/26 07:41:25;;;;;;;15.37;11.37;;;19.50;55.80;;;;;;5010948;28;20422;-66
2023/11/26 07:43:51;;;;;;;17.17;12.10;;;19.60;55.80;;;;;;5010948;28;20418;-65
2023/11/26 07:46:18;;;;;;;14.00;11.07;;;19.60;55.80;;;;;;5010699;28;20418;-66
2023/11/26 07:48:46;;;;;;;16.03;11.23;;;19.60;55.80;;;;;;5010918;28;20968;-66
2023/11/26 07:51:12;;;;;;;18.27;13.37;;;19.60;55.80;;;;;;5010799;28;20407;-67
2023/11/26 07:53:39;;;;;;;15.00;11.37;;;19.60;55.80;;;;;;5010812;28;20419;-67
2023/11/26 07:56:05;;;;;;;14.37;11.03;;;19.60;55.80;;;;;;5010695;28;20420;-67
2023/11/26 07:58:34;;;;;;;13.87;10.50;;;19.60;55.70;;;;;;5010521;28;21353;-66
2023/11/26 08:01:03;;;;;;;14.27;10.80;;;19.70;55.80;;;;;;5010692;28;20418;-66
2023/11/26 08:03:31;;;;;;;16.53;12.57;;;19.60;55.80;;;;;;5010755;28;20418;-66
2023/11/26 08:05:58;;;;;;;14.40;11.20;;;19.70;55.80;;;;;;5010727;28;20415;-66
2023/11/26 08:08:24;;;;;;;14.47;11.13;;;19.70;55.90;;;;;;5009831;28;20431;-66
2023/11/26 08:10:51;;;;;;;14.93;10.80;;;19.70;55.90;;;;;;5010564;28;20561;-65
2023/11/26 08:13:22;;;;;;;16.27;12.03;;;19.70;55.90;;;;;;5010547;28;20482;-66
2023/11/26 08:15:51;;;;;;;15.50;10.67;;;19.70;55.90;;;;;;5010500;28;20441;-66
2023/11/26 08:18:18;;;;;;;13.30;10.03;;;19.70;55.90;;;;;;5010299;28;20449;-66
2023/11/26 08:20:47;;;;;;;17.13;12.10;;;19.70;55.90;;;;;;5010708;28;20411;-66
2023/11/26 08:23:12;;;;;;;13.60;10.60;;;19.70;55.90;;;;;;5010682;28;20411;-66
2023/11/26 08:25:39;;;;;;;17.30;13.07;;;19.70;55.90;;;;;;5010459;28;20890;-66
2023/11/26 08:28:08;;;;;;;16.57;11.50;;;19.70;56.00;;;;;;5010355;28;20199;-66
2023/11/26 08:30:41;;;;;;;17.33;11.20;;;19.70;55.90;;;;;;5010247;28;21083;-66
2023/11/26 08:33:07;;;;;;;14.83;11.07;;;19.70;56.00;;;;;;5010366;28;20391;-67
2023/11/26 08:35:34;;;;;;;15.20;11.33;;;19.70;56.00;;;;;;5010505;28;20412;-66
2023/11/26 08:38:07;;;;;;;13.60;10.43;;;19.70;56.00;;;;;;5010543;28;20522;-66
2023/11/26 08:40:36;;;;;;;17.00;12.20;;;19.70;56.00;;;;;;5010303;28;20866;-66
2023/11/26 08:43:09;;;;;;;13.33;10.20;;;19.70;56.00;;;;;;5010302;28;20415;-67
2023/11/26 08:45:40;;;;;;;14.67;11.90;;;19.70;56.00;;;;;;5010170;28;20395;-67
2023/11/26 08:48:06;;;;;;;14.90;10.53;;;19.70;56.00;;;;;;5010136;28;20454;-66
2023/11/26 08:50:32;;;;;;;12.83;10.03;;;19.70;56.00;;;;;;5010180;28;20459;-66
2023/11/26 08:52:59;;;;;;;16.50;11.43;;;19.70;56.00;;;;;;5010235;28;20403;-66
2023/11/26 08:55:25;;;;;;;15.90;10.20;;;19.70;56.00;;;;;;5010125;28;20495;-67
2023/11/26 08:57:51;;;;;;;12.23;9.37;;;19.70;56.00;;;;;;5009891;28;20554;-67
2023/11/26 09:00:17;;;;;;;15.40;11.23;;;19.70;56.00;;;;;;5010097;28;20423;-65
2023/11/26 09:02:43;;;;;;;14.17;10.67;;;19.70;56.00;;;;;;5010295;28;20426;-66
2023/11/26 09:05:09;;;;;;;13.17;10.37;;;19.70;56.00;;;;;;5016405;28;20180;-67
2023/11/26 09:07:45;;;;;;;13.00;9.60;;;19.70;56.00;;;;;;5029962;28;20450;-67
2023/11/26 09:10:13;;;;;;;13.10;10.73;;;19.70;56.00;;;;;;5030024;28;20290;-66
2023/11/26 09:12:39;;;;;;;12.00;9.70;;;19.70;56.10;;;;;;5029892;28;20418;-67
2023/11/26 09:15:07;;;;;;;15.63;10.23;;;19.70;56.10;;;;;;5029691;28;20421;-66
2023/11/26 09:17:36;;;;;;;14.30;10.97;;;19.70;56.10;;;;;;5029752;28;20509;-66
2023/11/26 09:20:03;;;;;;;11.73;10.13;;;19.70;56.10;;;;;;5031068;28;20442;-66
2023/11/26 09:22:30;;;;;;;12.80;9.83;;;19.70;56.10;;;;;;5034283;28;20433;-66
2023/11/26 09:24:56;;;;;;;15.83;10.30;;;19.70;56.10;;;;;;5033739;28;20410;-68
2023/11/26 09:27:21;;;;;;;13.40;9.63;;;19.70;56.10;;;;;;5034253;28;20492;-67
2023/11/26 09:29:47;;;;;;;12.20;9.30;;;19.70;56.10;;;;;;5033281;28;20218;-70
2023/11/26 09:32:13;;;;;;;15.27;10.00;;;19.70;56.10;;;;;;5033390;28;20219;-67
2023/11/26 09:34:39;;;;;;;14.60;11.00;;;19.70;56.10;;;;;;5033343;28;20222;-67
2023/11/26 09:37:05;;;;;;;12.27;9.33;;;19.70;56.60;;;;;;5033247;28;20468;-68
2023/11/26 09:39:34;;;;;;;13.57;9.97;;;19.70;56.10;;;;;;5032923;28;20453;-68
2023/11/26 09:42:03;;;;;;;13.93;10.40;;;19.70;56.10;;;;;;5033010;28;20175;-67
2023/11/26 09:44:29;;;;;;;12.70;9.70;;;19.70;56.10;;;;;;5032531;28;20429;-68
2023/11/26 09:46:56;;;;;;;13.27;9.37;;;19.70;56.00;;;;;;5034081;28;20418;-67
2023/11/26 09:49:22;;;;;;;12.47;9.60;;;19.60;56.00;;;;;;5032777;28;20458;-68
2023/11/26 09:51:54;;;;;;;13.17;10.00;;;19.70;56.10;;;;;;5034968;28;20406;-66
2023/11/26 09:54:20;;;;;;;10.93;9.00;;;19.70;56.10;;;;;;5033519;28;20585;-67
2023/11/26 09:56:46;;;;;;;13.93;9.20;;;19.60;56.00;;;;;;5033279;28;20417;-67
2023/11/26 09:59:31;;;;;;;14.37;9.20;;;19.70;56.10;;;;;;5033201;28;20804;-68
2023/11/26 10:02:00;;;;;;;11.77;8.97;;;19.70;56.10;;;;;;5032741;28;20457;-67
2023/11/26 10:04:26;;;;;;;12.27;8.80;;;19.60;56.10;;;;;;5032751;28;20417;-67
2023/11/26 10:06:54;;;;;;;10.70;8.83;;;19.60;56.00;;;;;;5032552;28;20418;-65
2023/11/26 10:09:20;;;;;;;12.20;8.80;;;19.60;56.10;;;;;;5032419;28;20211;-66
2023/11/26 10:11:47;;;;;;;13.27;9.90;;;19.60;56.10;;;;;;5031867;28;20434;-67
2023/11/26 10:14:16;;;;;;;11.07;9.77;;;19.60;56.10;;;;;;5032158;28;20414;-67
2023/11/26 10:16:43;;;;;;;16.10;9.83;;;19.60;56.10;;;;;;5032344;28;20418;-67
2023/11/26 10:19:25;;;;;;;12.20;9.87;;;19.60;56.10;;;;;;5031692;28;20457;-68
2023/11/26 10:22:00;;;;;;;12.73;8.90;;;19.60;56.20;;;;;;5031375;28;20465;-67
2023/11/26 10:24:30;;;;;;;13.10;9.20;;;19.60;56.20;;;;;;5031714;28;20398;-67
2023/11/26 10:26:58;;;;;;;11.80;9.60;;;19.60;56.20;;;;;;5032168;28;20422;-67
2023/11/26 10:29:33;;;;;;;16.10;8.93;;;19.60;56.20;;;;;;5014239;28;20555;-67
2023/11/26 10:32:03;;;;;;;13.47;9.17;;;19.60;56.20;;;;;;5031678;28;20395;-66
2023/11/26 10:34:31;;;;;;;19.63;9.50;;;19.60;56.20;;;;;;5032067;28;20410;-67
2023/11/26 10:36:57;;;;;;;11.90;9.43;;;19.60;56.20;;;;;;5032109;28;20529;-66
2023/11/26 10:39:23;;;;;;;12.33;8.70;;;19.60;56.20;;;;;;5032073;28;20418;-68
2023/11/26 10:41:50;;;;;;;12.20;8.97;;;19.60;56.30;;;;;;5032089;28;20991;-68
2023/11/26 10:44:17;;;;;;;13.77;8.70;;;19.60;56.30;;;;;;5032068;28;20418;-67
2023/11/26 10:46:48;;;;;;;13.80;8.80;;;19.60;56.30;;;;;;5031894;28;20421;-67
2023/11/26 10:49:34;;;;;;;14.30;8.93;;;19.60;56.30;;;;;;5031776;28;20454;-67
2023/11/26 10:52:13;;;;;;;16.20;9.90;;;19.60;56.20;;;;;;5031855;28;20394;-67
2023/11/26 10:55:00;;;;;;;14.00;8.50;;;19.60;56.30;;;;;;5031705;28;20482;-68
2023/11/26 10:57:40;;;;;;;14.57;9.27;;;19.60;56.30;;;;;;5031743;28;20450;-68
2023/11/26 11:00:10;;;;;;;12.07;8.03;;;19.60;56.30;;;;;;5031251;28;20926;-69
2023/11/26 11:02:36;;;;;;;12.40;8.80;;;19.60;56.20;;;;;;5030862;28;20956;-69
2023/11/26 11:05:07;;;;;;;14.37;9.30;;;19.60;56.20;;;;;;5032108;28;20453;-68
2023/11/26 11:07:34;;;;;;;14.63;9.30;;;19.60;56.20;;;;;;5031644;28;20442;-70
2023/11/26 11:10:06;;;;;;;12.50;8.57;;;19.60;56.20;;;;;;5031892;28;20454;-69
2023/11/26 11:12:47;;;;;;;11.93;8.07;;;19.60;56.20;;;;;;5031334;28;20414;-68
2023/11/26 11:15:16;;;;;;;9.77;7.83;;;19.60;56.20;;;;;;5031475;28;20403;-68
2023/11/26 11:17:42;;;;;;;9.63;7.10;;;19.60;56.20;;;;;;5031235;28;20495;-68
2023/11/26 11:20:08;;;;;;;15.77;9.43;;;19.60;56.20;;;;;;5031212;28;20426;-68
2023/11/26 11:22:35;;;;;;;12.60;8.20;;;19.60;56.20;;;;;;5031440;28;20421;-69
2023/11/26 11:25:09;;;;;;;11.87;7.70;;;19.60;56.20;;;;;;5031329;28;20414;-67
2023/11/26 11:27:50;;;;;;;11.20;7.63;;;19.60;56.20;;;;;;5031100;28;20439;-67
2023/11/26 11:30:43;;;;;;;17.13;10.23;;;19.60;56.20;;;;;;5031208;28;20449;-68
2023/11/26 11:33:10;;;;;;;11.13;7.70;;;19.60;56.30;;;;;;5031121;28;20481;-68
2023/11/26 11:35:40;;;;;;;15.00;8.00;;;19.50;56.20;;;;;;5030947;28;20407;-68
2023/11/26 11:38:10;;;;;;;11.50;7.83;;;19.60;56.30;;;;;;5031004;28;20433;-68
2023/11/26 11:41:02;;;;;;;10.40;7.93;;;19.60;56.30;;;;;;5030877;28;20446;-68
2023/11/26 11:43:28;;;;;;;10.53;7.10;;;19.60;56.30;;;;;;5019673;28;20565;-68
2023/11/26 11:45:54;;;;;;;11.63;7.00;;;19.50;56.30;;;;;;5030998;28;20484;-69
2023/11/26 11:48:39;;;;;;;13.50;8.30;;;19.50;56.40;;;;;;5012790;28;20595;-67
2023/11/26 11:51:34;;;;;;;10.07;7.10;;;19.60;56.50;;;;;;5030587;28;20183;-68
2023/11/26 11:54:09;;;;;;;11.43;7.30;;;19.60;56.50;;;;;;5031070;28;20769;-68
2023/11/26 11:56:43;;;;;;;9.57;7.03;;;19.60;56.50;;;;;;5031047;28;20421;-67
2023/11/26 11:59:09;;;;;;;10.40;7.23;;;19.60;56.40;;;;;;5031184;28;20446;-68
2023/11/26 12:01:36;;;;;;;9.73;6.90;;;19.60;56.40;;;;;;5030594;28;20464;-67
2023/11/26 12:04:03;;;;;;;11.30;7.43;;;19.60;56.30;;;;;;5030994;28;20991;-68
2023/11/26 12:06:29;;;;;;;11.60;7.30;;;19.60;56.30;;;;;;5030843;28;20442;-68
2023/11/26 12:08:59;;;;;;;8.73;6.77;;;19.60;56.30;;;;;;5030526;28;20462;-68
2023/11/26 12:11:24;;;;;;;12.67;7.33;;;19.60;56.30;;;;;;5030368;28;20414;-68
2023/11/26 12:13:51;;;;;;;10.30;7.57;;;19.60;56.30;;;;;;5030451;28;20764;-67
2023/11/26 12:16:20;;;;;;;11.10;7.83;;;19.60;56.30;;;;;;5030596;28;20666;-67
2023/11/26 12:18:46;;;;;;;10.27;6.33;;;19.60;56.30;;;;;;5030460;28;20439;-68
2023/11/26 12:21:12;;;;;;;9.70;7.30;;;19.70;56.30;;;;;;5030466;28;20417;-68
2023/11/26 12:23:38;;;;;;;12.23;7.47;;;19.60;56.20;;;;;;5030251;28;20559;-67
2023/11/26 12:26:05;;;;;;;9.60;6.90;;;19.70;56.30;;;;;;5030695;28;20422;-68
2023/11/26 12:28:42;;;;;;;9.43;6.10;;;19.70;56.30;;;;;;5030292;28;20956;-68
2023/11/26 12:31:09;;;;;;;9.50;6.90;;;19.70;56.30;;;;;;5030645;28;20904;-67
2023/11/26 12:33:35;;;;;;;9.33;6.73;;;19.70;56.30;;;;;;5030186;28;20426;-67
2023/11/26 12:36:04;;;;;;;9.50;6.87;;;19.70;56.40;;;;;;5030431;28;20395;-67